NCAR-RAP Real-Time Weather Data

Output produced by METARs form (27 May 2015  19:32 UTC)
found at http://weather.rap.ucar.edu/surface/
 
Conditions at: KLOU observed 27 May 2015  19:14 UTC
Temperature: 20.0°C (68°F)
Dewpoint: 17.8°C (64°F) [RH = 87%]
Pressure (altimeter): 30.12 inches Hg (1020.1 mb)
Winds: from the SE (140 degrees) at 5 MPH (4 knots; 2.1 m/s)
Visibility: 10 or more miles (16+ km)
Ceiling: at least 12,000 feet AGL
Clouds: few clouds at 5000 feet AGL
few clouds at 9500 feet AGL
scattered clouds at 11000 feet AGL
Present Weather: no significant weather observed at this time
KLOU 271914Z 14004KT 10SM FEW050 FEW095 SCT110 20/18 A3012 RMK AO2 LTG DSNT E-S RAE11 TSE1855 P0000 T02000178